createdAt,value
2018-06-12T00:04:52.678Z,20.20
2018-06-12T00:07:20.846Z,20.20
2018-06-12T00:09:48.957Z,20.20
2018-06-12T00:12:18.037Z,20.20
2018-06-12T00:14:46.168Z,20.20
2018-06-12T00:17:14.372Z,20.20
2018-06-12T00:19:42.505Z,20.20
2018-06-12T00:22:10.657Z,20.20
2018-06-12T00:24:38.791Z,20.10
2018-06-12T00:27:06.995Z,20.10
2018-06-12T00:29:35.184Z,20.00
2018-06-12T00:32:03.370Z,20.00
2018-06-12T00:34:31.514Z,20.00
2018-06-12T00:36:59.728Z,19.90
2018-06-12T00:39:28.851Z,19.90
2018-06-12T00:41:57.017Z,19.80
2018-06-12T00:44:25.143Z,19.70
2018-06-12T00:46:53.341Z,19.70
2018-06-12T00:51:49.375Z,19.60
2018-06-12T00:54:18.324Z,19.60
2018-06-12T00:56:57.486Z,19.60
2018-06-12T00:59:25.641Z,19.60
2018-06-12T01:01:53.799Z,19.50
2018-06-12T01:04:21.946Z,19.50
2018-06-12T01:06:50.132Z,19.50
2018-06-12T01:09:18.288Z,19.50
2018-06-12T01:11:46.437Z,19.50
2018-06-12T01:14:14.617Z,19.50
2018-06-12T01:16:42.784Z,19.50
2018-06-12T01:19:10.990Z,19.50
2018-06-12T01:21:40.156Z,19.40
2018-06-12T01:24:08.304Z,19.50
2018-06-12T01:26:36.516Z,19.50
2018-06-12T01:29:04.761Z,19.50
2018-06-12T01:31:32.907Z,19.70
2018-06-12T01:34:01.558Z,20.10
2018-06-12T01:38:57.629Z,21.50
2018-06-12T01:41:25.853Z,21.90
2018-06-12T01:43:54.094Z,22.30
2018-06-12T01:46:22.278Z,22.60
2018-06-12T01:48:50.458Z,22.80
2018-06-12T01:51:18.617Z,23.00
2018-06-12T01:53:47.203Z,23.20
2018-06-12T01:56:15.406Z,23.30
2018-06-12T01:58:43.524Z,23.30
2018-06-12T02:01:11.725Z,23.20
2018-06-12T02:03:39.880Z,23.30
2018-06-12T02:06:08.088Z,23.40
2018-06-12T02:08:36.238Z,23.40
2018-06-12T02:11:04.445Z,23.40
2018-06-12T02:13:32.687Z,23.40
2018-06-12T02:16:00.878Z,23.40
2018-06-12T02:18:29.013Z,23.30
2018-06-12T02:20:57.170Z,23.20
2018-06-12T02:23:25.359Z,23.20
2018-06-12T02:25:53.497Z,23.20
2018-06-12T02:28:21.658Z,23.10
2018-06-12T02:30:49.806Z,23.00
2018-06-12T02:33:17.995Z,22.80
2018-06-12T02:35:46.258Z,22.80
2018-06-12T02:38:14.418Z,22.80
2018-06-12T02:40:42.645Z,22.80
2018-06-12T02:43:10.744Z,22.80
2018-06-12T02:45:38.942Z,22.70
2018-06-12T02:48:07.101Z,22.60
2018-06-12T02:50:35.325Z,22.50
2018-06-12T02:53:03.519Z,22.40
2018-06-12T02:55:31.690Z,22.30
2018-06-12T02:57:59.937Z,22.30
2018-06-12T03:00:28.129Z,22.20
2018-06-12T03:02:56.283Z,22.00
2018-06-12T03:05:24.413Z,21.90
2018-06-12T03:07:52.623Z,21.80
2018-06-12T03:10:20.817Z,21.80
2018-06-12T03:12:48.940Z,21.70
2018-06-12T03:15:17.100Z,21.60
2018-06-12T03:17:45.250Z,21.50
2018-06-12T03:20:13.421Z,21.50
2018-06-12T03:22:41.527Z,21.40
2018-06-12T03:25:09.669Z,21.30
2018-06-12T03:27:37.837Z,21.20
2018-06-12T03:30:05.983Z,21.20
2018-06-12T03:32:34.119Z,21.20
2018-06-12T03:35:02.241Z,21.20
2018-06-12T03:37:30.395Z,21.10
2018-06-12T03:39:58.549Z,21.10
2018-06-12T03:42:26.654Z,21.10
2018-06-12T03:44:54.817Z,21.10
2018-06-12T03:47:22.951Z,21.00
2018-06-12T03:49:51.097Z,21.00
2018-06-12T03:52:26.777Z,21.00
2018-06-12T03:54:54.996Z,21.00
2018-06-12T03:57:23.169Z,20.90
2018-06-12T03:59:51.309Z,20.90
2018-06-12T04:02:20.049Z,20.90
2018-06-12T04:04:48.199Z,21.00
2018-06-12T04:07:16.388Z,21.00
2018-06-12T04:09:44.531Z,21.00
2018-06-12T04:14:42.107Z,21.00
2018-06-12T04:17:10.352Z,21.10
2018-06-12T04:19:38.488Z,21.10
2018-06-12T04:22:06.686Z,21.10
2018-06-12T04:24:35.710Z,21.10
2018-06-12T04:27:03.982Z,21.10
2018-06-12T04:29:32.207Z,21.10
2018-06-12T04:32:02.447Z,21.20
2018-06-12T04:34:30.651Z,21.30
2018-06-12T04:36:58.810Z,21.30
2018-06-12T04:39:26.998Z,21.40
2018-06-12T04:41:55.134Z,21.50
2018-06-12T04:44:23.326Z,21.50
2018-06-12T04:46:51.460Z,21.60
2018-06-12T04:49:19.708Z,21.70
2018-06-12T04:51:47.903Z,21.80
2018-06-12T04:54:16.024Z,21.90
2018-06-12T04:56:44.175Z,22.00
2018-06-12T04:59:12.313Z,22.10
2018-06-12T05:01:40.472Z,22.20
2018-06-12T05:04:08.745Z,22.40
2018-06-12T05:06:36.965Z,22.60
2018-06-12T05:09:06.923Z,22.70
2018-06-12T05:11:35.098Z,22.80
2018-06-12T05:14:03.317Z,22.80
2018-06-12T05:16:31.691Z,22.90
2018-06-12T05:19:00.425Z,23.10
2018-06-12T05:21:28.806Z,23.20
2018-06-12T05:23:57.198Z,23.20
2018-06-12T05:26:25.521Z,23.30
2018-06-12T05:28:53.826Z,23.30
2018-06-12T05:31:22.230Z,23.40
2018-06-12T05:33:50.534Z,23.40
2018-06-12T05:36:18.835Z,23.50
2018-06-12T05:41:15.226Z,23.60
2018-06-12T05:43:43.631Z,23.70
2018-06-12T05:46:13.013Z,23.80
2018-06-12T05:48:41.384Z,23.80
2018-06-12T05:51:09.748Z,23.90
2018-06-12T05:53:38.168Z,23.80
2018-06-12T05:56:06.571Z,23.90
2018-06-12T05:58:34.931Z,24.00
2018-06-12T06:01:04.519Z,24.00
2018-06-12T06:03:32.805Z,24.00
2018-06-12T06:06:01.164Z,24.10
2018-06-12T06:08:29.537Z,24.20
2018-06-12T06:10:57.903Z,24.20
2018-06-12T06:13:26.273Z,24.20
2018-06-12T06:18:23.376Z,24.10
2018-06-12T06:20:51.683Z,24.10
2018-06-12T06:23:20.014Z,24.10
2018-06-12T06:25:49.122Z,24.10
2018-06-12T06:28:18.300Z,24.20
2018-06-12T06:30:46.575Z,24.30
2018-06-12T06:33:15.026Z,24.40
2018-06-12T06:35:43.385Z,24.60
2018-06-12T06:38:11.699Z,24.70
2018-06-12T06:40:39.921Z,24.80
2018-06-12T06:43:08.231Z,24.90
2018-06-12T06:45:36.799Z,25.00
2018-06-12T06:48:05.113Z,25.20
2018-06-12T06:50:33.447Z,25.30
2018-06-12T06:53:01.709Z,25.50
2018-06-12T06:55:29.969Z,25.50
2018-06-12T06:57:58.466Z,25.60
2018-06-12T07:00:26.715Z,25.60
2018-06-12T07:02:54.951Z,25.80
2018-06-12T07:05:23.232Z,25.70
2018-06-12T07:07:51.578Z,25.60
2018-06-12T07:10:19.946Z,25.70
2018-06-12T07:12:48.235Z,25.80
2018-06-12T07:15:16.501Z,26.20
2018-06-12T07:17:44.833Z,26.50
2018-06-12T07:20:20.115Z,26.70
2018-06-12T07:22:48.405Z,26.90
2018-06-12T07:25:16.706Z,26.90
2018-06-12T07:27:44.899Z,27.10
2018-06-12T07:30:13.166Z,27.30
2018-06-12T07:32:42.664Z,27.40
2018-06-12T07:35:11.042Z,27.40
2018-06-12T07:37:39.540Z,27.70
2018-06-12T07:40:07.741Z,27.60
2018-06-12T07:42:35.971Z,27.60
2018-06-12T07:45:04.379Z,27.80
2018-06-12T07:47:32.734Z,27.90
2018-06-12T07:50:01.133Z,28.10
2018-06-12T07:52:29.368Z,28.20
2018-06-12T07:54:57.648Z,28.40
2018-06-12T07:57:25.962Z,28.70
2018-06-12T07:59:54.286Z,28.80
2018-06-12T08:02:22.574Z,29.10
2018-06-12T08:04:50.811Z,29.10
2018-06-12T08:09:47.134Z,28.70
2018-06-12T08:12:15.382Z,28.80
2018-06-12T08:14:43.700Z,28.80
2018-06-12T08:19:41.160Z,29.00
2018-06-12T08:22:10.258Z,29.20
2018-06-12T08:24:39.969Z,28.90
2018-06-12T08:27:08.341Z,28.70
2018-06-12T08:29:36.812Z,28.50
2018-06-12T08:32:05.235Z,28.50
2018-06-12T08:34:34.774Z,28.40
2018-06-12T08:37:03.919Z,28.40
2018-06-12T08:39:32.831Z,28.40
2018-06-12T08:42:01.373Z,28.40
2018-06-12T08:44:30.267Z,28.70
2018-06-12T08:46:58.672Z,29.10
2018-06-12T08:51:55.211Z,28.80
2018-06-12T08:54:23.579Z,29.10
2018-06-12T08:56:51.961Z,29.40
2018-06-12T08:59:21.112Z,30.10
2018-06-12T09:01:49.377Z,30.20
2018-06-12T09:04:18.354Z,30.30
2018-06-12T09:06:47.639Z,30.30
2018-06-12T09:09:15.966Z,30.30
2018-06-12T09:11:44.407Z,30.20
2018-06-12T09:14:12.772Z,30.20
2018-06-12T09:16:41.061Z,30.30
2018-06-12T09:19:09.554Z,30.50
2018-06-12T09:21:37.988Z,30.50
2018-06-12T09:24:06.317Z,30.30
2018-06-12T09:26:35.710Z,30.00
2018-06-12T09:29:04.254Z,29.70
2018-06-12T09:31:32.770Z,29.50
2018-06-12T09:34:01.294Z,29.10
2018-06-12T09:36:34.118Z,28.80
2018-06-12T09:39:05.865Z,28.60
2018-06-12T09:41:34.244Z,28.40
2018-06-12T09:44:02.715Z,28.30
2018-06-12T09:46:31.096Z,28.20
2018-06-12T09:48:59.619Z,28.20
2018-06-12T09:51:28.105Z,28.10
2018-06-12T09:53:56.560Z,28.10
2018-06-12T09:56:26.692Z,28.20
2018-06-12T09:58:55.162Z,28.20
2018-06-12T10:01:23.783Z,28.30
2018-06-12T10:03:53.043Z,28.50
2018-06-12T10:06:21.600Z,28.60
2018-06-12T10:08:50.140Z,28.60
2018-06-12T10:11:18.706Z,28.50
2018-06-12T10:13:47.113Z,28.40
2018-06-12T10:16:15.470Z,28.40
2018-06-12T10:18:43.928Z,28.40
2018-06-12T10:21:12.407Z,28.30
2018-06-12T10:23:41.051Z,28.10
2018-06-12T10:26:10.442Z,28.00
2018-06-12T10:31:07.780Z,27.80
2018-06-12T10:33:36.274Z,27.70
2018-06-12T10:36:04.903Z,27.80
2018-06-12T10:38:34.005Z,27.70
2018-06-12T10:41:05.281Z,27.80
2018-06-12T10:43:37.042Z,27.80
2018-06-12T10:46:06.004Z,27.90
2018-06-12T10:48:34.405Z,28.00
2018-06-12T10:51:03.048Z,28.00
2018-06-12T10:53:32.094Z,27.90
2018-06-12T10:56:05.212Z,27.90
2018-06-12T10:58:34.568Z,27.80
2018-06-12T11:01:02.957Z,27.60
2018-06-12T11:03:33.683Z,27.50
2018-06-12T11:06:02.836Z,27.50
2018-06-12T11:08:33.037Z,27.40
2018-06-12T11:11:05.871Z,27.50
2018-06-12T11:13:34.384Z,27.40
2018-06-12T11:18:31.977Z,27.60
2018-06-12T11:21:03.349Z,27.50
2018-06-12T11:23:31.899Z,27.40
2018-06-12T11:26:04.076Z,27.00
2018-06-12T11:28:33.274Z,26.80
2018-06-12T11:31:06.505Z,26.60
2018-06-12T11:33:37.804Z,26.50
2018-06-12T11:36:07.324Z,26.40
2018-06-12T11:41:06.842Z,26.50
2018-06-12T11:43:36.524Z,26.50
2018-06-12T11:46:05.793Z,26.60
2018-06-12T11:48:35.754Z,27.00
2018-06-12T11:51:06.888Z,27.40
2018-06-12T11:53:36.016Z,27.80
2018-06-12T11:56:06.094Z,28.40
2018-06-12T11:58:35.521Z,28.90
2018-06-12T12:01:04.745Z,29.10
2018-06-12T12:03:35.204Z,28.90
2018-06-12T12:06:05.373Z,28.70
2018-06-12T12:08:34.823Z,28.70
2018-06-12T12:11:03.877Z,28.80
2018-06-12T12:13:34.994Z,28.90
2018-06-12T12:16:05.601Z,29.00
2018-06-12T12:18:36.397Z,29.20
2018-06-12T12:21:04.927Z,29.20
2018-06-12T12:23:36.420Z,29.20
2018-06-12T12:26:06.893Z,29.20
2018-06-12T12:28:35.380Z,29.20
2018-06-12T12:31:04.480Z,28.90
2018-06-12T12:33:34.849Z,28.90
2018-06-12T12:36:03.526Z,28.80
2018-06-12T12:38:33.311Z,28.80
2018-06-12T12:41:03.428Z,28.80
2018-06-12T12:43:33.197Z,28.80
2018-06-12T12:46:02.854Z,28.90
2018-06-12T12:48:31.450Z,29.20
2018-06-12T12:51:00.937Z,29.40
2018-06-12T12:53:29.978Z,29.40
2018-06-12T12:56:01.062Z,29.50
2018-06-12T13:01:00.097Z,29.60
2018-06-12T13:03:30.626Z,29.60
2018-06-12T13:06:00.084Z,29.90
2018-06-12T13:08:32.685Z,29.90
2018-06-12T13:11:01.800Z,29.80
2018-06-12T13:13:31.210Z,29.90
2018-06-12T13:15:59.764Z,29.90
2018-06-12T13:18:28.452Z,29.90
2018-06-12T13:20:58.538Z,30.00
2018-06-12T13:23:28.675Z,30.10
2018-06-12T13:26:01.292Z,30.10
2018-06-12T13:28:33.616Z,30.10
2018-06-12T13:31:02.647Z,30.20
2018-06-12T13:33:31.884Z,30.30
2018-06-12T13:36:01.240Z,30.40
2018-06-12T13:38:31.338Z,30.30
2018-06-12T13:41:05.078Z,30.00
2018-06-12T13:43:35.392Z,29.80
2018-06-12T13:46:05.422Z,29.50
2018-06-12T13:48:38.541Z,29.50
2018-06-12T13:51:09.756Z,29.50
2018-06-12T13:53:40.707Z,29.60
2018-06-12T13:56:11.912Z,29.80
2018-06-12T13:58:44.394Z,29.90
2018-06-12T14:03:47.588Z,29.90
2018-06-12T14:06:17.259Z,29.90
2018-06-12T14:08:49.801Z,30.10
2018-06-12T14:11:21.932Z,30.10
2018-06-12T14:13:53.374Z,30.20
2018-06-12T14:16:27.226Z,30.30
2018-06-12T14:19:02.064Z,30.40
2018-06-12T14:24:07.502Z,30.40
2018-06-12T14:26:41.757Z,30.30
2018-06-12T14:29:15.294Z,30.30
2018-06-12T14:34:16.754Z,30.30
2018-06-12T14:36:50.071Z,30.30
2018-06-12T14:39:21.291Z,30.30
2018-06-12T14:41:52.403Z,30.10
2018-06-12T14:44:26.193Z,30.00
2018-06-12T14:46:58.244Z,30.00
2018-06-12T14:49:29.291Z,30.00
2018-06-12T14:52:05.778Z,29.80
2018-06-12T14:54:38.615Z,29.80
2018-06-12T14:57:09.444Z,29.80
2018-06-12T14:59:43.202Z,29.90
2018-06-12T15:02:16.253Z,29.70
2018-06-12T15:04:50.164Z,29.60
2018-06-12T15:07:23.733Z,29.60
2018-06-12T15:09:54.912Z,29.60
2018-06-12T15:17:37.886Z,28.40
2018-06-12T15:20:16.115Z,27.90
2018-06-12T15:25:36.303Z,26.90
2018-06-12T15:28:12.145Z,26.70
2018-06-12T15:30:49.194Z,26.50
2018-06-12T15:33:20.683Z,26.30
2018-06-12T15:35:54.569Z,26.10
2018-06-12T15:38:30.515Z,26.00
2018-06-12T15:41:03.562Z,25.90
2018-06-12T15:43:41.072Z,25.90
2018-06-12T15:46:15.488Z,25.70
2018-06-12T15:48:49.573Z,25.70
2018-06-12T15:51:18.008Z,25.60
2018-06-12T15:53:46.390Z,23.90
2018-06-12T15:56:14.721Z,20.90
2018-06-12T15:58:42.973Z,18.70
2018-06-12T16:01:11.200Z,17.00
2018-06-12T16:03:39.538Z,15.80
2018-06-12T16:06:07.825Z,15.70
2018-06-12T16:08:36.050Z,15.60
2018-06-12T16:11:04.303Z,15.60
2018-06-12T16:13:32.642Z,15.70
2018-06-12T16:16:00.843Z,15.70
2018-06-12T16:20:56.956Z,15.80
2018-06-12T16:23:25.196Z,15.80
2018-06-12T16:25:53.424Z,15.80
2018-06-12T16:28:21.680Z,15.80
2018-06-12T16:30:49.890Z,15.90
2018-06-12T16:33:18.097Z,15.90
2018-06-12T16:35:46.340Z,16.00
2018-06-12T16:40:42.457Z,16.30
2018-06-12T16:45:38.607Z,16.50
2018-06-12T16:48:06.849Z,16.50
2018-06-12T16:50:34.995Z,16.60
2018-06-12T16:53:03.229Z,16.50
2018-06-12T16:55:31.555Z,16.50
2018-06-12T16:57:59.751Z,16.60
2018-06-12T17:00:27.949Z,16.60
2018-06-12T17:02:56.149Z,16.70
2018-06-12T17:07:52.330Z,16.80
2018-06-12T17:10:20.678Z,16.80
2018-06-12T17:12:48.903Z,16.60
2018-06-12T17:15:17.185Z,16.60
2018-06-12T17:17:45.492Z,16.60
2018-06-12T17:20:13.729Z,16.60
2018-06-12T17:22:42.013Z,16.70
2018-06-12T17:25:10.318Z,16.70
2018-06-12T17:27:38.606Z,16.80
2018-06-12T17:30:06.854Z,16.80
2018-06-12T17:32:35.191Z,16.80
2018-06-12T17:35:03.554Z,16.90
2018-06-12T17:37:31.952Z,16.90
2018-06-12T17:40:00.281Z,16.90
2018-06-12T17:42:28.562Z,16.90
2018-06-12T17:44:56.943Z,16.90
2018-06-12T17:47:25.268Z,16.90
2018-06-12T17:49:53.569Z,17.00
2018-06-12T17:52:21.956Z,17.10
2018-06-12T17:54:50.332Z,17.10
2018-06-12T17:57:18.606Z,17.00
2018-06-12T17:59:46.934Z,17.10
2018-06-12T18:02:15.225Z,17.00
2018-06-12T18:04:43.560Z,17.00
2018-06-12T18:07:11.940Z,17.00
2018-06-12T18:09:40.312Z,17.00
2018-06-12T18:12:08.626Z,16.90
2018-06-12T18:14:37.087Z,16.80
2018-06-12T18:17:05.453Z,16.90
2018-06-12T18:19:33.832Z,16.90
2018-06-12T18:22:02.210Z,16.90
2018-06-12T18:24:30.580Z,16.90
2018-06-12T18:26:58.924Z,16.90
2018-06-12T18:29:27.364Z,16.90
2018-06-12T18:31:56.620Z,17.00
2018-06-12T18:34:24.998Z,17.00
2018-06-12T18:36:54.477Z,17.00
2018-06-12T18:39:23.011Z,17.00
2018-06-12T18:41:52.072Z,17.00
2018-06-12T18:44:20.509Z,17.00
2018-06-12T18:46:49.515Z,17.00
2018-06-12T18:49:17.953Z,17.00
2018-06-12T18:51:46.347Z,17.00
2018-06-12T18:54:15.330Z,17.00
2018-06-12T18:56:44.604Z,17.00
2018-06-12T18:59:13.079Z,17.00
2018-06-12T19:01:42.509Z,17.00
2018-06-12T19:04:11.461Z,17.00
2018-06-12T19:06:39.883Z,17.00
2018-06-12T19:09:08.467Z,17.10
2018-06-12T19:11:36.903Z,17.10
2018-06-12T19:14:05.322Z,17.10
2018-06-12T19:16:33.906Z,17.10
2018-06-12T19:19:02.284Z,17.20
2018-06-12T19:21:30.791Z,17.10
2018-06-12T19:23:59.128Z,17.10
2018-06-12T19:26:27.427Z,17.10
2018-06-12T19:28:55.782Z,17.10
2018-06-12T19:31:26.112Z,17.10
2018-06-12T19:46:09.506Z,17.00
2018-06-12T19:48:37.736Z,16.90
2018-06-12T19:51:05.978Z,16.90
2018-06-12T19:53:34.157Z,16.90
2018-06-12T19:56:02.318Z,16.90
2018-06-12T19:58:30.426Z,16.90
2018-06-12T20:00:58.861Z,16.80
2018-06-12T20:03:27.013Z,16.90
2018-06-12T20:05:55.219Z,16.90
2018-06-12T20:08:23.409Z,16.80
2018-06-12T20:10:51.624Z,16.80
2018-06-12T20:13:19.762Z,16.80
2018-06-12T20:15:47.920Z,16.80
2018-06-12T20:18:16.143Z,16.80
2018-06-12T20:20:44.246Z,16.80
2018-06-12T20:25:40.346Z,16.70
2018-06-12T20:28:08.453Z,16.70
2018-06-12T20:33:04.586Z,16.60
2018-06-12T20:35:32.766Z,16.70
2018-06-12T20:38:00.914Z,16.70
2018-06-12T20:40:29.359Z,16.60
2018-06-12T20:42:57.497Z,16.70
2018-06-12T20:47:53.634Z,16.60
2018-06-12T20:50:21.885Z,16.60
2018-06-12T20:52:50.064Z,16.60
2018-06-12T20:55:18.329Z,16.60
2018-06-12T20:57:46.508Z,16.60
2018-06-12T21:00:14.702Z,16.70
2018-06-12T21:02:43.027Z,16.70
2018-06-12T21:05:11.279Z,16.70
2018-06-12T21:07:39.412Z,16.70
2018-06-12T21:10:07.762Z,16.70
2018-06-12T21:12:35.906Z,16.70
2018-06-12T21:15:04.177Z,16.70
2018-06-12T21:17:32.330Z,16.70
2018-06-12T21:20:00.439Z,16.50
2018-06-12T21:22:28.542Z,16.50
2018-06-12T21:24:56.694Z,16.50
2018-06-12T21:27:24.905Z,16.50
2018-06-12T21:29:53.097Z,16.40
2018-06-12T21:32:21.183Z,16.40
2018-06-12T21:34:49.265Z,16.40
2018-06-12T21:37:17.478Z,16.40
2018-06-12T21:39:45.600Z,16.30
2018-06-12T21:42:13.708Z,16.30
2018-06-12T21:44:41.801Z,16.30
2018-06-12T21:47:10.523Z,16.20
2018-06-12T21:49:38.759Z,16.20
2018-06-12T21:52:06.929Z,16.10
2018-06-12T21:54:35.047Z,16.10
2018-06-12T21:57:03.182Z,16.00
2018-06-12T21:59:31.305Z,15.90
2018-06-12T22:01:59.435Z,15.90
2018-06-12T22:04:27.548Z,15.90
2018-06-12T22:06:55.677Z,15.80
2018-06-12T22:09:23.788Z,15.80
2018-06-12T22:11:51.905Z,15.80
2018-06-12T22:14:20.002Z,15.70
2018-06-12T22:16:48.118Z,15.70
2018-06-12T22:19:16.295Z,15.70
2018-06-12T22:21:44.450Z,15.70
2018-06-12T22:24:12.603Z,15.60
2018-06-12T22:26:40.739Z,15.60
2018-06-12T22:29:08.899Z,15.60
2018-06-12T22:34:04.987Z,15.70
2018-06-12T22:36:33.095Z,15.60
2018-06-12T22:39:01.202Z,15.60
2018-06-12T22:41:29.444Z,15.70
2018-06-12T22:43:57.595Z,15.70
2018-06-12T22:46:25.779Z,15.70
2018-06-12T22:48:53.945Z,15.60
2018-06-12T22:51:22.138Z,15.60
2018-06-12T22:53:50.289Z,15.60
2018-06-12T22:56:18.462Z,15.60
2018-06-12T22:58:46.580Z,15.70
2018-06-12T23:03:42.599Z,15.70
2018-06-12T23:06:10.685Z,15.70
2018-06-12T23:08:38.789Z,15.70
2018-06-12T23:11:07.018Z,15.60
2018-06-12T23:13:35.144Z,15.60
2018-06-12T23:16:03.268Z,15.60
2018-06-12T23:18:31.390Z,15.60
2018-06-12T23:22:05.345Z,15.60
2018-06-12T23:24:33.481Z,15.60
2018-06-12T23:27:01.629Z,15.60
2018-06-12T23:29:30.635Z,15.60
2018-06-12T23:31:58.783Z,15.60
2018-06-12T23:34:26.904Z,15.60
2018-06-12T23:36:55.057Z,15.70
2018-06-12T23:39:23.243Z,15.60
2018-06-12T23:41:51.361Z,15.60
2018-06-12T23:44:19.527Z,15.60
2018-06-12T23:46:47.626Z,15.50
2018-06-12T23:49:15.715Z,15.40
2018-06-12T23:51:43.839Z,15.40
2018-06-12T23:54:12.009Z,15.40
2018-06-12T23:56:40.141Z,15.30
2018-06-12T23:59:08.282Z,15.30
